sensor_id;sensor_type;location;lat;lon;timestamp;P1;durP1;ratioP1;P2;durP2;ratioP2
74799;SDS011;63326;45.088;7.658;2022-11-06T00:02:17;5.72;;;2.85;;
74799;SDS011;63326;45.088;7.658;2022-11-06T00:04:46;5.90;;;2.58;;
74799;SDS011;63326;45.088;7.658;2022-11-06T00:07:13;8.80;;;4.00;;
74799;SDS011;63326;45.088;7.658;2022-11-06T00:09:39;5.53;;;2.50;;
74799;SDS011;63326;45.088;7.658;2022-11-06T00:12:06;6.82;;;2.50;;
74799;SDS011;63326;45.088;7.658;2022-11-06T00:14:33;10.15;;;3.78;;
74799;SDS011;63326;45.088;7.658;2022-11-06T00:17:00;9.60;;;3.63;;
74799;SDS011;63326;45.088;7.658;2022-11-06T00:19:26;10.75;;;3.83;;
74799;SDS011;63326;45.088;7.658;2022-11-06T00:21:53;7.03;;;3.22;;
74799;SDS011;63326;45.088;7.658;2022-11-06T00:24:19;7.82;;;2.70;;
74799;SDS011;63326;45.088;7.658;2022-11-06T00:26:46;8.23;;;2.47;;
74799;SDS011;63326;45.088;7.658;2022-11-06T00:29:19;8.68;;;2.53;;
74799;SDS011;63326;45.088;7.658;2022-11-06T00:31:47;6.97;;;2.78;;
74799;SDS011;63326;45.088;7.658;2022-11-06T00:34:14;5.32;;;3.20;;
74799;SDS011;63326;45.088;7.658;2022-11-06T00:36:41;4.85;;;2.15;;
74799;SDS011;63326;45.088;7.658;2022-11-06T00:39:07;5.88;;;2.80;;
74799;SDS011;63326;45.088;7.658;2022-11-06T00:41:35;8.18;;;3.90;;
74799;SDS011;63326;45.088;7.658;2022-11-06T00:44:02;5.70;;;3.20;;
74799;SDS011;63326;45.088;7.658;2022-11-06T00:46:29;8.27;;;3.65;;
74799;SDS011;63326;45.088;7.658;2022-11-06T00:48:56;8.88;;;3.47;;
74799;SDS011;63326;45.088;7.658;2022-11-06T00:51:24;5.47;;;2.45;;
74799;SDS011;63326;45.088;7.658;2022-11-06T00:53:55;11.05;;;3.83;;
74799;SDS011;63326;45.088;7.658;2022-11-06T00:56:23;6.10;;;3.22;;
74799;SDS011;63326;45.088;7.658;2022-11-06T00:58:50;7.50;;;3.30;;
74799;SDS011;63326;45.088;7.658;2022-11-06T01:01:18;5.38;;;2.40;;
74799;SDS011;63326;45.088;7.658;2022-11-06T01:03:47;10.93;;;3.30;;
74799;SDS011;63326;45.088;7.658;2022-11-06T01:06:18;7.90;;;2.97;;
74799;SDS011;63326;45.088;7.658;2022-11-06T01:08:46;8.57;;;3.58;;
74799;SDS011;63326;45.088;7.658;2022-11-06T01:11:18;9.70;;;2.88;;
74799;SDS011;63326;45.088;7.658;2022-11-06T01:13:47;7.28;;;3.28;;
74799;SDS011;63326;45.088;7.658;2022-11-06T01:16:15;5.00;;;2.83;;
74799;SDS011;63326;45.088;7.658;2022-11-06T01:18:42;7.45;;;2.40;;
74799;SDS011;63326;45.088;7.658;2022-11-06T01:21:13;9.52;;;3.90;;
74799;SDS011;63326;45.088;7.658;2022-11-06T01:23:41;7.95;;;3.30;;
74799;SDS011;63326;45.088;7.658;2022-11-06T01:26:09;7.72;;;3.97;;
74799;SDS011;63326;45.088;7.658;2022-11-06T01:28:37;7.75;;;3.65;;
74799;SDS011;63326;45.088;7.658;2022-11-06T01:31:05;5.95;;;2.65;;
74799;SDS011;63326;45.088;7.658;2022-11-06T01:33:37;10.15;;;3.80;;
74799;SDS011;63326;45.088;7.658;2022-11-06T01:36:04;8.77;;;3.83;;
74799;SDS011;63326;45.088;7.658;2022-11-06T01:38:31;8.48;;;3.60;;
74799;SDS011;63326;45.088;7.658;2022-11-06T01:40:57;7.72;;;3.55;;
74799;SDS011;63326;45.088;7.658;2022-11-06T01:46:18;7.47;;;2.85;;
74799;SDS011;63326;45.088;7.658;2022-11-06T01:48:47;7.80;;;3.67;;
74799;SDS011;63326;45.088;7.658;2022-11-06T01:51:18;6.93;;;3.55;;
74799;SDS011;63326;45.088;7.658;2022-11-06T01:53:45;6.90;;;4.03;;
74799;SDS011;63326;45.088;7.658;2022-11-06T01:56:12;7.38;;;3.42;;
74799;SDS011;63326;45.088;7.658;2022-11-06T01:58:40;6.53;;;3.17;;
74799;SDS011;63326;45.088;7.658;2022-11-06T02:01:11;13.57;;;3.97;;
74799;SDS011;63326;45.088;7.658;2022-11-06T02:03:38;6.47;;;3.28;;
74799;SDS011;63326;45.088;7.658;2022-11-06T02:06:07;6.53;;;3.08;;
74799;SDS011;63326;45.088;7.658;2022-11-06T02:08:34;8.00;;;2.63;;
74799;SDS011;63326;45.088;7.658;2022-11-06T02:11:01;8.13;;;3.15;;
74799;SDS011;63326;45.088;7.658;2022-11-06T02:13:32;5.88;;;3.15;;
74799;SDS011;63326;45.088;7.658;2022-11-06T02:18:59;4.50;;;2.22;;
74799;SDS011;63326;45.088;7.658;2022-11-06T02:24:28;6.70;;;3.03;;
74799;SDS011;63326;45.088;7.658;2022-11-06T02:27:11;8.05;;;3.13;;
74799;SDS011;63326;45.088;7.658;2022-11-06T02:37:45;5.95;;;3.25;;
74799;SDS011;63326;45.088;7.658;2022-11-06T02:40:12;10.00;;;3.30;;
74799;SDS011;63326;45.088;7.658;2022-11-06T02:42:42;11.57;;;4.00;;
74799;SDS011;63326;45.088;7.658;2022-11-06T02:45:13;10.32;;;3.67;;
74799;SDS011;63326;45.088;7.658;2022-11-06T02:47:42;8.50;;;3.17;;
74799;SDS011;63326;45.088;7.658;2022-11-06T02:50:15;4.65;;;2.13;;
74799;SDS011;63326;45.088;7.658;2022-11-06T02:52:47;5.68;;;2.80;;
74799;SDS011;63326;45.088;7.658;2022-11-06T02:55:19;7.95;;;4.18;;
74799;SDS011;63326;45.088;7.658;2022-11-06T02:57:50;4.07;;;3.03;;
74799;SDS011;63326;45.088;7.658;2022-11-06T03:00:18;7.53;;;3.92;;
74799;SDS011;63326;45.088;7.658;2022-11-06T03:02:52;7.35;;;3.42;;
74799;SDS011;63326;45.088;7.658;2022-11-06T03:05:22;6.15;;;2.92;;
74799;SDS011;63326;45.088;7.658;2022-11-06T03:10:31;7.25;;;3.22;;
74799;SDS011;63326;45.088;7.658;2022-11-06T03:13:06;7.38;;;3.08;;
74799;SDS011;63326;45.088;7.658;2022-11-06T03:18:15;9.48;;;3.63;;
74799;SDS011;63326;45.088;7.658;2022-11-06T03:23:32;6.40;;;2.55;;
74799;SDS011;63326;45.088;7.658;2022-11-06T03:26:15;4.57;;;2.28;;
74799;SDS011;63326;45.088;7.658;2022-11-06T03:31:33;5.68;;;2.50;;
74799;SDS011;63326;45.088;7.658;2022-11-06T03:34:04;5.75;;;2.75;;
74799;SDS011;63326;45.088;7.658;2022-11-06T03:36:37;5.85;;;2.55;;
74799;SDS011;63326;45.088;7.658;2022-11-06T03:39:08;6.45;;;3.05;;
74799;SDS011;63326;45.088;7.658;2022-11-06T03:41:58;6.38;;;2.78;;
74799;SDS011;63326;45.088;7.658;2022-11-06T03:44:28;6.45;;;2.70;;
74799;SDS011;63326;45.088;7.658;2022-11-06T03:46:58;5.47;;;2.78;;
74799;SDS011;63326;45.088;7.658;2022-11-06T03:49:53;6.72;;;3.35;;
74799;SDS011;63326;45.088;7.658;2022-11-06T03:52:30;5.70;;;2.50;;
74799;SDS011;63326;45.088;7.658;2022-11-06T03:55:00;5.78;;;2.75;;
74799;SDS011;63326;45.088;7.658;2022-11-06T03:57:35;6.32;;;2.85;;
74799;SDS011;63326;45.088;7.658;2022-11-06T04:00:05;6.35;;;2.58;;
74799;SDS011;63326;45.088;7.658;2022-11-06T04:02:40;4.72;;;2.08;;
74799;SDS011;63326;45.088;7.658;2022-11-06T04:05:12;8.15;;;2.50;;
74799;SDS011;63326;45.088;7.658;2022-11-06T04:07:43;4.30;;;1.85;;
74799;SDS011;63326;45.088;7.658;2022-11-06T04:10:34;4.95;;;1.45;;
74799;SDS011;63326;45.088;7.658;2022-11-06T04:13:21;2.95;;;1.27;;
74799;SDS011;63326;45.088;7.658;2022-11-06T04:16:08;5.65;;;2.17;;
74799;SDS011;63326;45.088;7.658;2022-11-06T04:18:35;5.63;;;2.60;;
74799;SDS011;63326;45.088;7.658;2022-11-06T04:21:10;6.80;;;3.10;;
74799;SDS011;63326;45.088;7.658;2022-11-06T04:24:05;6.53;;;3.22;;
74799;SDS011;63326;45.088;7.658;2022-11-06T04:27:02;4.25;;;1.67;;
74799;SDS011;63326;45.088;7.658;2022-11-06T04:46:13;6.00;;;2.15;;
74799;SDS011;63326;45.088;7.658;2022-11-06T04:48:44;6.00;;;2.50;;
74799;SDS011;63326;45.088;7.658;2022-11-06T04:51:12;5.95;;;2.13;;
74799;SDS011;63326;45.088;7.658;2022-11-06T04:53:39;8.40;;;1.92;;
74799;SDS011;63326;45.088;7.658;2022-11-06T04:56:11;5.15;;;2.15;;
74799;SDS011;63326;45.088;7.658;2022-11-06T04:58:44;4.72;;;2.47;;
74799;SDS011;63326;45.088;7.658;2022-11-06T05:01:10;6.30;;;1.95;;
74799;SDS011;63326;45.088;7.658;2022-11-06T05:03:37;5.70;;;2.88;;
74799;SDS011;63326;45.088;7.658;2022-11-06T05:06:03;3.50;;;1.52;;
74799;SDS011;63326;45.088;7.658;2022-11-06T05:08:30;5.30;;;1.45;;
74799;SDS011;63326;45.088;7.658;2022-11-06T05:10:57;4.22;;;1.88;;
74799;SDS011;63326;45.088;7.658;2022-11-06T05:13:23;6.07;;;2.05;;
74799;SDS011;63326;45.088;7.658;2022-11-06T05:15:54;6.93;;;2.60;;
74799;SDS011;63326;45.088;7.658;2022-11-06T05:18:24;3.88;;;1.85;;
74799;SDS011;63326;45.088;7.658;2022-11-06T05:20:51;4.03;;;1.75;;
74799;SDS011;63326;45.088;7.658;2022-11-06T05:23:38;3.85;;;2.10;;
74799;SDS011;63326;45.088;7.658;2022-11-06T05:26:05;3.78;;;2.10;;
74799;SDS011;63326;45.088;7.658;2022-11-06T05:28:32;3.75;;;1.40;;
74799;SDS011;63326;45.088;7.658;2022-11-06T05:30:59;11.93;;;2.35;;
74799;SDS011;63326;45.088;7.658;2022-11-06T05:33:26;4.47;;;2.10;;
74799;SDS011;63326;45.088;7.658;2022-11-06T05:35:52;4.47;;;2.17;;
74799;SDS011;63326;45.088;7.658;2022-11-06T05:38:19;5.03;;;2.33;;
74799;SDS011;63326;45.088;7.658;2022-11-06T05:40:46;6.55;;;2.38;;
74799;SDS011;63326;45.088;7.658;2022-11-06T05:43:12;4.53;;;1.80;;
74799;SDS011;63326;45.088;7.658;2022-11-06T05:45:39;4.55;;;1.67;;
74799;SDS011;63326;45.088;7.658;2022-11-06T05:48:06;5.32;;;2.20;;
74799;SDS011;63326;45.088;7.658;2022-11-06T05:50:32;2.50;;;0.95;;
74799;SDS011;63326;45.088;7.658;2022-11-06T05:53:02;3.83;;;2.15;;
74799;SDS011;63326;45.088;7.658;2022-11-06T05:55:29;4.10;;;1.48;;
74799;SDS011;63326;45.088;7.658;2022-11-06T05:57:55;4.28;;;1.65;;
74799;SDS011;63326;45.088;7.658;2022-11-06T06:00:22;3.30;;;1.27;;
74799;SDS011;63326;45.088;7.658;2022-11-06T06:02:48;7.28;;;2.50;;
74799;SDS011;63326;45.088;7.658;2022-11-06T06:05:15;3.47;;;1.33;;
74799;SDS011;63326;45.088;7.658;2022-11-06T06:07:42;4.07;;;2.10;;
74799;SDS011;63326;45.088;7.658;2022-11-06T06:10:09;3.30;;;1.33;;
74799;SDS011;63326;45.088;7.658;2022-11-06T06:12:36;2.88;;;1.48;;
74799;SDS011;63326;45.088;7.658;2022-11-06T06:15:05;2.67;;;1.55;;
74799;SDS011;63326;45.088;7.658;2022-11-06T06:17:32;4.35;;;1.77;;
74799;SDS011;63326;45.088;7.658;2022-11-06T06:19:59;1.65;;;0.95;;
74799;SDS011;63326;45.088;7.658;2022-11-06T06:22:25;3.00;;;1.15;;
74799;SDS011;63326;45.088;7.658;2022-11-06T06:24:52;4.32;;;1.42;;
74799;SDS011;63326;45.088;7.658;2022-11-06T06:27:19;2.25;;;0.93;;
74799;SDS011;63326;45.088;7.658;2022-11-06T06:29:45;4.25;;;1.35;;
74799;SDS011;63326;45.088;7.658;2022-11-06T06:32:12;2.03;;;0.88;;
74799;SDS011;63326;45.088;7.658;2022-11-06T06:34:38;3.75;;;1.58;;
74799;SDS011;63326;45.088;7.658;2022-11-06T06:37:05;3.42;;;1.58;;
74799;SDS011;63326;45.088;7.658;2022-11-06T06:39:31;3.58;;;1.85;;
74799;SDS011;63326;45.088;7.658;2022-11-06T06:41:58;4.43;;;1.90;;
74799;SDS011;63326;45.088;7.658;2022-11-06T06:44:25;4.05;;;1.40;;
74799;SDS011;63326;45.088;7.658;2022-11-06T06:46:51;3.13;;;1.52;;
74799;SDS011;63326;45.088;7.658;2022-11-06T06:49:18;4.97;;;1.55;;
74799;SDS011;63326;45.088;7.658;2022-11-06T06:51:46;6.95;;;1.75;;
74799;SDS011;63326;45.088;7.658;2022-11-06T06:54:13;3.42;;;1.50;;
74799;SDS011;63326;45.088;7.658;2022-11-06T06:56:40;5.88;;;1.95;;
74799;SDS011;63326;45.088;7.658;2022-11-06T06:59:07;5.10;;;1.83;;
74799;SDS011;63326;45.088;7.658;2022-11-06T07:01:33;5.55;;;2.45;;
74799;SDS011;63326;45.088;7.658;2022-11-06T07:04:00;4.95;;;1.85;;
74799;SDS011;63326;45.088;7.658;2022-11-06T07:06:29;5.03;;;2.22;;
74799;SDS011;63326;45.088;7.658;2022-11-06T07:08:56;5.70;;;2.03;;
74799;SDS011;63326;45.088;7.658;2022-11-06T07:11:22;3.83;;;1.65;;
74799;SDS011;63326;45.088;7.658;2022-11-06T07:13:49;4.97;;;1.58;;
74799;SDS011;63326;45.088;7.658;2022-11-06T07:16:16;4.80;;;2.47;;
74799;SDS011;63326;45.088;7.658;2022-11-06T07:18:43;6.68;;;2.15;;
74799;SDS011;63326;45.088;7.658;2022-11-06T07:21:10;2.60;;;1.42;;
74799;SDS011;63326;45.088;7.658;2022-11-06T07:23:37;3.65;;;2.35;;
74799;SDS011;63326;45.088;7.658;2022-11-06T07:26:04;3.38;;;2.05;;
74799;SDS011;63326;45.088;7.658;2022-11-06T07:28:31;4.60;;;1.70;;
74799;SDS011;63326;45.088;7.658;2022-11-06T07:30:58;5.50;;;2.22;;
74799;SDS011;63326;45.088;7.658;2022-11-06T07:33:26;9.10;;;2.40;;
74799;SDS011;63326;45.088;7.658;2022-11-06T07:35:52;5.95;;;2.92;;
74799;SDS011;63326;45.088;7.658;2022-11-06T07:38:19;3.75;;;1.85;;
74799;SDS011;63326;45.088;7.658;2022-11-06T07:40:45;4.35;;;2.00;;
74799;SDS011;63326;45.088;7.658;2022-11-06T07:43:12;6.30;;;2.35;;
74799;SDS011;63326;45.088;7.658;2022-11-06T07:45:39;5.68;;;2.03;;
74799;SDS011;63326;45.088;7.658;2022-11-06T07:48:06;6.40;;;2.47;;
74799;SDS011;63326;45.088;7.658;2022-11-06T07:50:32;4.88;;;2.22;;
74799;SDS011;63326;45.088;7.658;2022-11-06T07:53:02;5.43;;;2.22;;
74799;SDS011;63326;45.088;7.658;2022-11-06T07:55:29;5.65;;;2.03;;
74799;SDS011;63326;45.088;7.658;2022-11-06T07:57:56;4.78;;;2.03;;
74799;SDS011;63326;45.088;7.658;2022-11-06T08:00:23;4.97;;;2.17;;
74799;SDS011;63326;45.088;7.658;2022-11-06T08:02:51;4.13;;;1.70;;
74799;SDS011;63326;45.088;7.658;2022-11-06T08:05:18;4.88;;;2.67;;
74799;SDS011;63326;45.088;7.658;2022-11-06T08:07:45;6.32;;;2.03;;
74799;SDS011;63326;45.088;7.658;2022-11-06T08:10:12;4.22;;;1.77;;
74799;SDS011;63326;45.088;7.658;2022-11-06T08:12:38;4.90;;;2.35;;
74799;SDS011;63326;45.088;7.658;2022-11-06T08:15:05;3.33;;;1.48;;
74799;SDS011;63326;45.088;7.658;2022-11-06T08:17:32;3.67;;;1.35;;
74799;SDS011;63326;45.088;7.658;2022-11-06T08:19:58;3.55;;;1.50;;
74799;SDS011;63326;45.088;7.658;2022-11-06T08:22:25;2.55;;;1.30;;
74799;SDS011;63326;45.088;7.658;2022-11-06T08:24:51;3.13;;;1.33;;
74799;SDS011;63326;45.088;7.658;2022-11-06T08:27:18;5.38;;;2.13;;
74799;SDS011;63326;45.088;7.658;2022-11-06T08:29:45;4.10;;;1.52;;
74799;SDS011;63326;45.088;7.658;2022-11-06T08:32:11;4.18;;;1.42;;
74799;SDS011;63326;45.088;7.658;2022-11-06T08:34:38;3.63;;;1.20;;
74799;SDS011;63326;45.088;7.658;2022-11-06T08:37:04;2.35;;;1.17;;
74799;SDS011;63326;45.088;7.658;2022-11-06T08:39:31;3.97;;;1.42;;
74799;SDS011;63326;45.088;7.658;2022-11-06T08:41:58;2.53;;;1.30;;
74799;SDS011;63326;45.088;7.658;2022-11-06T08:44:24;2.55;;;0.88;;
74799;SDS011;63326;45.088;7.658;2022-11-06T08:46:51;3.08;;;1.05;;
74799;SDS011;63326;45.088;7.658;2022-11-06T08:49:18;4.85;;;1.40;;
74799;SDS011;63326;45.088;7.658;2022-11-06T08:51:44;1.83;;;0.73;;
74799;SDS011;63326;45.088;7.658;2022-11-06T08:54:11;2.25;;;0.80;;
74799;SDS011;63326;45.088;7.658;2022-11-06T08:56:37;1.23;;;0.47;;
74799;SDS011;63326;45.088;7.658;2022-11-06T08:59:04;1.85;;;1.15;;
74799;SDS011;63326;45.088;7.658;2022-11-06T09:01:30;2.45;;;1.00;;
74799;SDS011;63326;45.088;7.658;2022-11-06T09:03:57;2.30;;;0.98;;
74799;SDS011;63326;45.088;7.658;2022-11-06T09:06:24;2.75;;;1.35;;
74799;SDS011;63326;45.088;7.658;2022-11-06T09:08:50;3.63;;;1.10;;
74799;SDS011;63326;45.088;7.658;2022-11-06T09:11:17;2.80;;;0.95;;
74799;SDS011;63326;45.088;7.658;2022-11-06T09:13:44;2.47;;;0.70;;
74799;SDS011;63326;45.088;7.658;2022-11-06T09:16:10;0.68;;;0.45;;
74799;SDS011;63326;45.088;7.658;2022-11-06T09:18:41;3.78;;;0.98;;
74799;SDS011;63326;45.088;7.658;2022-11-06T09:21:08;3.88;;;0.68;;
74799;SDS011;63326;45.088;7.658;2022-11-06T09:23:35;3.08;;;1.00;;
74799;SDS011;63326;45.088;7.658;2022-11-06T09:26:02;5.47;;;1.00;;
74799;SDS011;63326;45.088;7.658;2022-11-06T09:28:28;3.95;;;1.02;;
74799;SDS011;63326;45.088;7.658;2022-11-06T09:30:55;2.08;;;0.80;;
74799;SDS011;63326;45.088;7.658;2022-11-06T09:33:22;2.70;;;1.08;;
74799;SDS011;63326;45.088;7.658;2022-11-06T09:35:48;2.88;;;1.25;;
74799;SDS011;63326;45.088;7.658;2022-11-06T09:38:15;1.85;;;0.93;;
74799;SDS011;63326;45.088;7.658;2022-11-06T09:41:17;2.05;;;0.95;;
74799;SDS011;63326;45.088;7.658;2022-11-06T09:46:52;5.18;;;1.38;;
74799;SDS011;63326;45.088;7.658;2022-11-06T09:54:41;3.58;;;0.68;;
74799;SDS011;63326;45.088;7.658;2022-11-06T09:57:12;3.40;;;1.10;;
74799;SDS011;63326;45.088;7.658;2022-11-06T09:59:41;1.95;;;0.70;;
74799;SDS011;63326;45.088;7.658;2022-11-06T10:02:27;2.42;;;1.33;;
74799;SDS011;63326;45.088;7.658;2022-11-06T10:07:34;2.63;;;0.70;;
74799;SDS011;63326;45.088;7.658;2022-11-06T10:10:03;5.35;;;1.42;;
74799;SDS011;63326;45.088;7.658;2022-11-06T10:13:05;3.38;;;1.15;;
74799;SDS011;63326;45.088;7.658;2022-11-06T10:21:10;6.95;;;1.50;;
74799;SDS011;63326;45.088;7.658;2022-11-06T10:23:48;2.67;;;1.38;;
74799;SDS011;63326;45.088;7.658;2022-11-06T10:26:18;2.20;;;1.00;;
74799;SDS011;63326;45.088;7.658;2022-11-06T10:36:59;3.15;;;0.75;;
74799;SDS011;63326;45.088;7.658;2022-11-06T10:39:31;2.85;;;1.55;;
74799;SDS011;63326;45.088;7.658;2022-11-06T10:42:02;2.45;;;1.23;;
74799;SDS011;63326;45.088;7.658;2022-11-06T10:44:37;4.50;;;1.10;;
74799;SDS011;63326;45.088;7.658;2022-11-06T10:55:06;2.13;;;0.70;;
74799;SDS011;63326;45.088;7.658;2022-11-06T11:00:28;1.80;;;0.88;;
74799;SDS011;63326;45.088;7.658;2022-11-06T11:02:58;3.25;;;1.02;;
74799;SDS011;63326;45.088;7.658;2022-11-06T11:05:36;2.30;;;0.90;;
74799;SDS011;63326;45.088;7.658;2022-11-06T11:08:30;3.25;;;1.15;;
74799;SDS011;63326;45.088;7.658;2022-11-06T11:18:51;3.15;;;0.95;;
74799;SDS011;63326;45.088;7.658;2022-11-06T11:21:22;2.17;;;0.82;;
74799;SDS011;63326;45.088;7.658;2022-11-06T11:24:08;1.52;;;0.68;;
74799;SDS011;63326;45.088;7.658;2022-11-06T11:26:36;3.28;;;1.42;;
74799;SDS011;63326;45.088;7.658;2022-11-06T11:32:03;3.40;;;1.38;;
74799;SDS011;63326;45.088;7.658;2022-11-06T11:34:32;1.92;;;0.80;;
74799;SDS011;63326;45.088;7.658;2022-11-06T11:37:01;3.78;;;1.40;;
74799;SDS011;63326;45.088;7.658;2022-11-06T11:39:36;3.63;;;1.50;;
74799;SDS011;63326;45.088;7.658;2022-11-06T11:44:57;2.63;;;0.93;;
74799;SDS011;63326;45.088;7.658;2022-11-06T11:47:34;4.18;;;1.55;;
74799;SDS011;63326;45.088;7.658;2022-11-06T11:52:44;5.72;;;1.40;;
74799;SDS011;63326;45.088;7.658;2022-11-06T11:55:16;2.90;;;1.20;;
74799;SDS011;63326;45.088;7.658;2022-11-06T11:57:44;2.55;;;1.00;;
74799;SDS011;63326;45.088;7.658;2022-11-06T12:00:15;3.22;;;1.55;;
74799;SDS011;63326;45.088;7.658;2022-11-06T12:02:45;2.70;;;0.98;;
74799;SDS011;63326;45.088;7.658;2022-11-06T12:05:14;2.83;;;1.15;;
74799;SDS011;63326;45.088;7.658;2022-11-06T12:07:46;3.03;;;0.82;;
74799;SDS011;63326;45.088;7.658;2022-11-06T12:12:54;4.75;;;1.60;;
74799;SDS011;63326;45.088;7.658;2022-11-06T12:17:51;3.75;;;1.42;;
74799;SDS011;63326;45.088;7.658;2022-11-06T12:20:21;3.42;;;1.27;;
74799;SDS011;63326;45.088;7.658;2022-11-06T12:22:51;2.90;;;1.83;;
74799;SDS011;63326;45.088;7.658;2022-11-06T12:25:29;2.83;;;1.35;;
74799;SDS011;63326;45.088;7.658;2022-11-06T12:27:59;1.88;;;0.90;;
74799;SDS011;63326;45.088;7.658;2022-11-06T12:30:27;4.63;;;1.52;;
74799;SDS011;63326;45.088;7.658;2022-11-06T12:35:41;4.47;;;1.38;;
74799;SDS011;63326;45.088;7.658;2022-11-06T12:38:45;2.45;;;1.33;;
74799;SDS011;63326;45.088;7.658;2022-11-06T12:41:36;3.95;;;1.30;;
74799;SDS011;63326;45.088;7.658;2022-11-06T12:44:08;4.03;;;1.60;;
74799;SDS011;63326;45.088;7.658;2022-11-06T12:46:42;3.17;;;1.20;;
74799;SDS011;63326;45.088;7.658;2022-11-06T12:49:16;4.55;;;1.52;;
74799;SDS011;63326;45.088;7.658;2022-11-06T13:08:08;3.33;;;1.30;;
74799;SDS011;63326;45.088;7.658;2022-11-06T13:10:57;4.53;;;1.38;;
74799;SDS011;63326;45.088;7.658;2022-11-06T13:13:35;3.95;;;1.80;;
74799;SDS011;63326;45.088;7.658;2022-11-06T13:18:43;2.83;;;1.48;;
74799;SDS011;63326;45.088;7.658;2022-11-06T13:23:49;3.88;;;1.70;;
74799;SDS011;63326;45.088;7.658;2022-11-06T13:26:33;6.07;;;1.45;;
74799;SDS011;63326;45.088;7.658;2022-11-06T13:29:02;4.05;;;1.45;;
74799;SDS011;63326;45.088;7.658;2022-11-06T13:31:43;4.82;;;1.65;;
74799;SDS011;63326;45.088;7.658;2022-11-06T13:34:16;4.70;;;1.60;;
74799;SDS011;63326;45.088;7.658;2022-11-06T13:36:47;2.38;;;1.33;;
74799;SDS011;63326;45.088;7.658;2022-11-06T13:39:17;3.33;;;1.15;;
74799;SDS011;63326;45.088;7.658;2022-11-06T13:41:44;3.80;;;1.20;;
74799;SDS011;63326;45.088;7.658;2022-11-06T13:44:11;3.88;;;1.20;;
74799;SDS011;63326;45.088;7.658;2022-11-06T14:00:21;3.65;;;1.13;;
74799;SDS011;63326;45.088;7.658;2022-11-06T14:05:43;5.35;;;1.30;;
74799;SDS011;63326;45.088;7.658;2022-11-06T14:08:15;3.22;;;1.17;;
74799;SDS011;63326;45.088;7.658;2022-11-06T14:11:10;3.03;;;1.10;;
74799;SDS011;63326;45.088;7.658;2022-11-06T14:14:23;3.08;;;1.27;;
74799;SDS011;63326;45.088;7.658;2022-11-06T14:22:48;2.05;;;0.88;;
74799;SDS011;63326;45.088;7.658;2022-11-06T14:25:59;2.05;;;0.70;;
74799;SDS011;63326;45.088;7.658;2022-11-06T14:28:05;1.73;;;0.90;;
74799;SDS011;63326;45.088;7.658;2022-11-06T14:38:51;3.33;;;1.13;;
74799;SDS011;63326;45.088;7.658;2022-11-06T14:44:04;3.65;;;0.88;;
74799;SDS011;63326;45.088;7.658;2022-11-06T14:46:32;2.05;;;1.00;;
74799;SDS011;63326;45.088;7.658;2022-11-06T14:49:08;2.03;;;0.80;;
74799;SDS011;63326;45.088;7.658;2022-11-06T14:51:54;4.28;;;1.20;;
74799;SDS011;63326;45.088;7.658;2022-11-06T14:54:23;3.65;;;1.55;;
74799;SDS011;63326;45.088;7.658;2022-11-06T14:56:53;4.60;;;1.30;;
74799;SDS011;63326;45.088;7.658;2022-11-06T14:59:20;3.22;;;1.02;;
74799;SDS011;63326;45.088;7.658;2022-11-06T15:01:56;59.03;;;9.98;;
74799;SDS011;63326;45.088;7.658;2022-11-06T15:04:29;51.05;;;7.68;;
74799;SDS011;63326;45.088;7.658;2022-11-06T15:07:05;94.60;;;14.40;;
74799;SDS011;63326;45.088;7.658;2022-11-06T15:12:06;32.20;;;5.28;;
74799;SDS011;63326;45.088;7.658;2022-11-06T15:19:43;20.65;;;3.17;;
74799;SDS011;63326;45.088;7.658;2022-11-06T15:27:21;17.77;;;3.33;;
74799;SDS011;63326;45.088;7.658;2022-11-06T15:29:50;19.33;;;2.90;;
74799;SDS011;63326;45.088;7.658;2022-11-06T15:32:19;13.80;;;2.92;;
74799;SDS011;63326;45.088;7.658;2022-11-06T15:37:34;14.73;;;2.60;;
74799;SDS011;63326;45.088;7.658;2022-11-06T15:40:04;12.05;;;2.42;;
74799;SDS011;63326;45.088;7.658;2022-11-06T15:42:33;14.38;;;3.13;;
74799;SDS011;63326;45.088;7.658;2022-11-06T15:45:04;13.77;;;2.58;;
74799;SDS011;63326;45.088;7.658;2022-11-06T15:47:33;16.10;;;2.40;;
74799;SDS011;63326;45.088;7.658;2022-11-06T15:50:11;14.20;;;2.20;;
74799;SDS011;63326;45.088;7.658;2022-11-06T15:52:40;10.68;;;2.22;;
74799;SDS011;63326;45.088;7.658;2022-11-06T15:57:54;10.95;;;2.58;;
74799;SDS011;63326;45.088;7.658;2022-11-06T16:00:31;8.23;;;1.48;;
74799;SDS011;63326;45.088;7.658;2022-11-06T16:03:00;11.73;;;2.95;;
74799;SDS011;63326;45.088;7.658;2022-11-06T16:05:28;11.20;;;2.10;;
74799;SDS011;63326;45.088;7.658;2022-11-06T16:07:56;7.50;;;2.17;;
74799;SDS011;63326;45.088;7.658;2022-11-06T16:10:24;5.95;;;1.38;;
74799;SDS011;63326;45.088;7.658;2022-11-06T16:12:52;5.20;;;1.55;;
74799;SDS011;63326;45.088;7.658;2022-11-06T16:18:16;6.07;;;2.13;;
74799;SDS011;63326;45.088;7.658;2022-11-06T16:20:43;10.32;;;2.83;;
74799;SDS011;63326;45.088;7.658;2022-11-06T16:23:12;2.58;;;0.90;;
74799;SDS011;63326;45.088;7.658;2022-11-06T16:25:40;7.93;;;1.88;;
74799;SDS011;63326;45.088;7.658;2022-11-06T16:28:18;7.20;;;1.65;;
74799;SDS011;63326;45.088;7.658;2022-11-06T16:30:46;3.78;;;1.25;;
74799;SDS011;63326;45.088;7.658;2022-11-06T16:33:17;5.40;;;1.55;;
74799;SDS011;63326;45.088;7.658;2022-11-06T16:35:46;6.88;;;1.30;;
74799;SDS011;63326;45.088;7.658;2022-11-06T16:38:27;3.25;;;1.02;;
74799;SDS011;63326;45.088;7.658;2022-11-06T16:41:07;8.07;;;1.98;;
74799;SDS011;63326;45.088;7.658;2022-11-06T16:43:34;4.25;;;1.73;;
74799;SDS011;63326;45.088;7.658;2022-11-06T16:46:01;5.72;;;1.67;;
74799;SDS011;63326;45.088;7.658;2022-11-06T16:48:39;4.78;;;1.92;;
74799;SDS011;63326;45.088;7.658;2022-11-06T16:51:08;5.18;;;1.15;;
74799;SDS011;63326;45.088;7.658;2022-11-06T16:56:22;5.60;;;1.73;;
74799;SDS011;63326;45.088;7.658;2022-11-06T16:58:55;5.35;;;1.92;;
74799;SDS011;63326;45.088;7.658;2022-11-06T17:01:22;4.40;;;1.27;;
74799;SDS011;63326;45.088;7.658;2022-11-06T17:03:54;7.10;;;1.75;;
74799;SDS011;63326;45.088;7.658;2022-11-06T17:06:23;7.35;;;1.95;;
74799;SDS011;63326;45.088;7.658;2022-11-06T17:11:35;4.35;;;1.63;;
74799;SDS011;63326;45.088;7.658;2022-11-06T17:14:09;6.32;;;2.25;;
74799;SDS011;63326;45.088;7.658;2022-11-06T17:16:48;4.75;;;1.55;;
74799;SDS011;63326;45.088;7.658;2022-11-06T17:19:17;6.70;;;1.67;;
74799;SDS011;63326;45.088;7.658;2022-11-06T17:21:44;4.78;;;1.85;;
74799;SDS011;63326;45.088;7.658;2022-11-06T17:24:11;7.05;;;1.60;;
74799;SDS011;63326;45.088;7.658;2022-11-06T17:26:58;5.97;;;1.92;;
74799;SDS011;63326;45.088;7.658;2022-11-06T17:29:27;4.30;;;1.63;;
74799;SDS011;63326;45.088;7.658;2022-11-06T17:31:54;6.85;;;2.17;;
74799;SDS011;63326;45.088;7.658;2022-11-06T17:34:21;5.50;;;2.15;;
74799;SDS011;63326;45.088;7.658;2022-11-06T17:36:48;4.28;;;1.70;;
74799;SDS011;63326;45.088;7.658;2022-11-06T17:39:15;6.07;;;2.22;;
74799;SDS011;63326;45.088;7.658;2022-11-06T17:41:41;6.45;;;2.17;;
74799;SDS011;63326;45.088;7.658;2022-11-06T17:44:09;7.30;;;1.88;;
74799;SDS011;63326;45.088;7.658;2022-11-06T17:46:38;3.25;;;1.63;;
74799;SDS011;63326;45.088;7.658;2022-11-06T17:49:06;4.07;;;1.65;;
74799;SDS011;63326;45.088;7.658;2022-11-06T17:51:39;4.72;;;1.73;;
74799;SDS011;63326;45.088;7.658;2022-11-06T17:54:15;6.93;;;2.05;;
74799;SDS011;63326;45.088;7.658;2022-11-06T17:56:43;6.35;;;2.25;;
74799;SDS011;63326;45.088;7.658;2022-11-06T17:59:10;4.00;;;1.23;;
74799;SDS011;63326;45.088;7.658;2022-11-06T18:01:38;3.60;;;2.05;;
74799;SDS011;63326;45.088;7.658;2022-11-06T18:04:06;5.25;;;1.50;;
74799;SDS011;63326;45.088;7.658;2022-11-06T18:06:34;4.68;;;2.10;;
74799;SDS011;63326;45.088;7.658;2022-11-06T18:09:01;9.45;;;1.63;;
74799;SDS011;63326;45.088;7.658;2022-11-06T18:11:29;5.25;;;2.10;;